sensor_id;sensor_type;location;lat;lon;timestamp;P1;durP1;ratioP1;P2;durP2;ratioP2
25153;SDS011;47555;51.038;6.280;2023-03-23T00:01:29;4.28;;;2.63;;
25153;SDS011;47555;51.038;6.280;2023-03-23T00:03:57;4.50;;;2.70;;
25153;SDS011;47555;51.038;6.280;2023-03-23T00:06:24;4.13;;;2.75;;
25153;SDS011;47555;51.038;6.280;2023-03-23T00:08:52;4.38;;;2.53;;
25153;SDS011;47555;51.038;6.280;2023-03-23T00:11:24;5.22;;;2.72;;
25153;SDS011;47555;51.038;6.280;2023-03-23T00:13:54;3.53;;;2.78;;
25153;SDS011;47555;51.038;6.280;2023-03-23T00:16:22;4.43;;;2.60;;
25153;SDS011;47555;51.038;6.280;2023-03-23T00:18:58;4.93;;;2.50;;
25153;SDS011;47555;51.038;6.280;2023-03-23T00:21:29;2.92;;;2.42;;
25153;SDS011;47555;51.038;6.280;2023-03-23T00:24:04;3.80;;;2.72;;
25153;SDS011;47555;51.038;6.280;2023-03-23T00:26:35;6.03;;;3.33;;
25153;SDS011;47555;51.038;6.280;2023-03-23T00:29:05;3.88;;;2.80;;
25153;SDS011;47555;51.038;6.280;2023-03-23T00:31:42;4.40;;;2.80;;
25153;SDS011;47555;51.038;6.280;2023-03-23T00:34:13;4.72;;;2.70;;
25153;SDS011;47555;51.038;6.280;2023-03-23T00:36:43;5.28;;;2.60;;
25153;SDS011;47555;51.038;6.280;2023-03-23T00:39:14;3.72;;;2.80;;
25153;SDS011;47555;51.038;6.280;2023-03-23T00:41:41;5.13;;;2.72;;
25153;SDS011;47555;51.038;6.280;2023-03-23T00:44:07;5.82;;;2.67;;
25153;SDS011;47555;51.038;6.280;2023-03-23T00:46:33;5.70;;;2.92;;
25153;SDS011;47555;51.038;6.280;2023-03-23T00:48:59;4.53;;;2.78;;
25153;SDS011;47555;51.038;6.280;2023-03-23T00:51:25;3.53;;;2.75;;
25153;SDS011;47555;51.038;6.280;2023-03-23T00:53:50;4.03;;;2.55;;
25153;SDS011;47555;51.038;6.280;2023-03-23T00:56:16;5.07;;;2.65;;
25153;SDS011;47555;51.038;6.280;2023-03-23T00:58:42;6.38;;;3.00;;
25153;SDS011;47555;51.038;6.280;2023-03-23T01:01:08;3.50;;;2.88;;
25153;SDS011;47555;51.038;6.280;2023-03-23T01:03:34;3.55;;;2.70;;
25153;SDS011;47555;51.038;6.280;2023-03-23T01:06:05;3.83;;;2.67;;
25153;SDS011;47555;51.038;6.280;2023-03-23T01:08:33;4.22;;;3.10;;
25153;SDS011;47555;51.038;6.280;2023-03-23T01:11:03;3.80;;;3.10;;
25153;SDS011;47555;51.038;6.280;2023-03-23T01:13:30;3.30;;;2.67;;
25153;SDS011;47555;51.038;6.280;2023-03-23T01:15:55;4.32;;;3.10;;
25153;SDS011;47555;51.038;6.280;2023-03-23T01:18:21;3.58;;;2.85;;
25153;SDS011;47555;51.038;6.280;2023-03-23T01:20:46;3.75;;;3.20;;
25153;SDS011;47555;51.038;6.280;2023-03-23T01:23:12;3.08;;;2.70;;
25153;SDS011;47555;51.038;6.280;2023-03-23T01:25:38;6.20;;;3.33;;
25153;SDS011;47555;51.038;6.280;2023-03-23T01:28:03;5.45;;;3.25;;
25153;SDS011;47555;51.038;6.280;2023-03-23T01:30:29;4.75;;;3.30;;
25153;SDS011;47555;51.038;6.280;2023-03-23T01:32:55;5.03;;;3.47;;
25153;SDS011;47555;51.038;6.280;2023-03-23T01:35:21;4.75;;;3.25;;
25153;SDS011;47555;51.038;6.280;2023-03-23T01:37:47;4.93;;;3.33;;
25153;SDS011;47555;51.038;6.280;2023-03-23T01:40:12;4.97;;;3.63;;
25153;SDS011;47555;51.038;6.280;2023-03-23T01:42:39;4.95;;;3.53;;
25153;SDS011;47555;51.038;6.280;2023-03-23T01:48:10;5.25;;;3.53;;
25153;SDS011;47555;51.038;6.280;2023-03-23T01:50:46;5.57;;;3.28;;
25153;SDS011;47555;51.038;6.280;2023-03-23T01:53:16;4.22;;;3.28;;
25153;SDS011;47555;51.038;6.280;2023-03-23T01:55:43;5.30;;;3.20;;
25153;SDS011;47555;51.038;6.280;2023-03-23T01:58:13;5.15;;;3.13;;
25153;SDS011;47555;51.038;6.280;2023-03-23T02:00:41;5.25;;;3.00;;
25153;SDS011;47555;51.038;6.280;2023-03-23T02:03:07;3.45;;;2.70;;
25153;SDS011;47555;51.038;6.280;2023-03-23T02:05:37;3.75;;;2.90;;
25153;SDS011;47555;51.038;6.280;2023-03-23T02:08:07;4.03;;;3.10;;
25153;SDS011;47555;51.038;6.280;2023-03-23T02:10:34;4.50;;;2.65;;
25153;SDS011;47555;51.038;6.280;2023-03-23T02:13:02;5.53;;;2.95;;
25153;SDS011;47555;51.038;6.280;2023-03-23T02:18:28;3.92;;;2.28;;
25153;SDS011;47555;51.038;6.280;2023-03-23T02:21:13;2.83;;;2.30;;
25153;SDS011;47555;51.038;6.280;2023-03-23T02:26:35;4.97;;;2.50;;
25153;SDS011;47555;51.038;6.280;2023-03-23T02:32:15;2.88;;;2.30;;
25153;SDS011;47555;51.038;6.280;2023-03-23T02:34:52;4.80;;;2.35;;
25153;SDS011;47555;51.038;6.280;2023-03-23T02:37:24;3.28;;;2.63;;
25153;SDS011;47555;51.038;6.280;2023-03-23T02:40:09;4.60;;;2.30;;
25153;SDS011;47555;51.038;6.280;2023-03-23T02:45:09;3.25;;;2.45;;
25153;SDS011;47555;51.038;6.280;2023-03-23T02:47:36;3.58;;;2.40;;
25153;SDS011;47555;51.038;6.280;2023-03-23T02:50:03;3.15;;;2.20;;
25153;SDS011;47555;51.038;6.280;2023-03-23T02:52:32;3.53;;;2.78;;
25153;SDS011;47555;51.038;6.280;2023-03-23T02:55:01;3.97;;;2.60;;
25153;SDS011;47555;51.038;6.280;2023-03-23T02:57:28;2.90;;;2.30;;
25153;SDS011;47555;51.038;6.280;2023-03-23T02:59:55;3.53;;;2.38;;
25153;SDS011;47555;51.038;6.280;2023-03-23T03:02:21;3.72;;;2.38;;
25153;SDS011;47555;51.038;6.280;2023-03-23T03:07:47;3.40;;;2.72;;
25153;SDS011;47555;51.038;6.280;2023-03-23T03:10:24;3.92;;;2.53;;
25153;SDS011;47555;51.038;6.280;2023-03-23T03:15:56;4.28;;;2.70;;
25153;SDS011;47555;51.038;6.280;2023-03-23T03:21:03;3.40;;;2.70;;
25153;SDS011;47555;51.038;6.280;2023-03-23T03:23:32;4.47;;;2.72;;
25153;SDS011;47555;51.038;6.280;2023-03-23T03:25:59;3.38;;;3.05;;
25153;SDS011;47555;51.038;6.280;2023-03-23T03:28:27;4.80;;;2.60;;
25153;SDS011;47555;51.038;6.280;2023-03-23T03:30:54;5.05;;;2.83;;
25153;SDS011;47555;51.038;6.280;2023-03-23T03:33:22;3.00;;;2.67;;
25153;SDS011;47555;51.038;6.280;2023-03-23T03:35:50;3.38;;;2.50;;
25153;SDS011;47555;51.038;6.280;2023-03-23T03:38:20;3.28;;;2.72;;
25153;SDS011;47555;51.038;6.280;2023-03-23T03:40:46;3.25;;;2.80;;
25153;SDS011;47555;51.038;6.280;2023-03-23T03:43:12;3.10;;;2.70;;
25153;SDS011;47555;51.038;6.280;2023-03-23T03:45:37;3.53;;;3.03;;
25153;SDS011;47555;51.038;6.280;2023-03-23T03:48:03;4.10;;;2.95;;
25153;SDS011;47555;51.038;6.280;2023-03-23T03:50:29;5.60;;;2.80;;
25153;SDS011;47555;51.038;6.280;2023-03-23T03:52:55;5.95;;;3.10;;
25153;SDS011;47555;51.038;6.280;2023-03-23T03:55:20;3.80;;;2.50;;
25153;SDS011;47555;51.038;6.280;2023-03-23T03:57:46;4.28;;;3.03;;
25153;SDS011;47555;51.038;6.280;2023-03-23T04:00:13;5.32;;;2.80;;
25153;SDS011;47555;51.038;6.280;2023-03-23T04:02:43;3.85;;;2.25;;
25153;SDS011;47555;51.038;6.280;2023-03-23T04:05:12;5.28;;;3.35;;
25153;SDS011;47555;51.038;6.280;2023-03-23T04:07:38;4.05;;;3.38;;
25153;SDS011;47555;51.038;6.280;2023-03-23T04:10:05;5.80;;;3.05;;
25153;SDS011;47555;51.038;6.280;2023-03-23T04:12:32;4.53;;;2.90;;
25153;SDS011;47555;51.038;6.280;2023-03-23T04:14:57;3.53;;;3.03;;
25153;SDS011;47555;51.038;6.280;2023-03-23T04:17:23;3.75;;;2.83;;
25153;SDS011;47555;51.038;6.280;2023-03-23T04:19:51;4.20;;;2.83;;
25153;SDS011;47555;51.038;6.280;2023-03-23T04:22:17;3.80;;;2.92;;
25153;SDS011;47555;51.038;6.280;2023-03-23T04:24:42;3.25;;;2.75;;
25153;SDS011;47555;51.038;6.280;2023-03-23T04:27:08;3.80;;;2.90;;
25153;SDS011;47555;51.038;6.280;2023-03-23T04:29:33;3.42;;;2.65;;
25153;SDS011;47555;51.038;6.280;2023-03-23T04:31:59;4.40;;;2.83;;
25153;SDS011;47555;51.038;6.280;2023-03-23T04:34:26;4.57;;;2.67;;
25153;SDS011;47555;51.038;6.280;2023-03-23T04:36:52;4.75;;;3.42;;
25153;SDS011;47555;51.038;6.280;2023-03-23T04:39:21;4.72;;;2.97;;
25153;SDS011;47555;51.038;6.280;2023-03-23T04:41:46;4.45;;;2.67;;
25153;SDS011;47555;51.038;6.280;2023-03-23T04:44:12;3.67;;;2.83;;
25153;SDS011;47555;51.038;6.280;2023-03-23T04:46:42;5.13;;;3.00;;
25153;SDS011;47555;51.038;6.280;2023-03-23T04:49:10;4.75;;;2.90;;
25153;SDS011;47555;51.038;6.280;2023-03-23T04:51:35;4.70;;;3.10;;
25153;SDS011;47555;51.038;6.280;2023-03-23T04:54:01;4.40;;;3.08;;
25153;SDS011;47555;51.038;6.280;2023-03-23T04:56:29;4.78;;;3.05;;
25153;SDS011;47555;51.038;6.280;2023-03-23T04:58:55;4.47;;;2.70;;
25153;SDS011;47555;51.038;6.280;2023-03-23T05:01:20;4.43;;;2.95;;
25153;SDS011;47555;51.038;6.280;2023-03-23T05:03:46;4.05;;;2.78;;
25153;SDS011;47555;51.038;6.280;2023-03-23T05:06:12;4.53;;;3.00;;
25153;SDS011;47555;51.038;6.280;2023-03-23T05:08:38;3.00;;;2.70;;
25153;SDS011;47555;51.038;6.280;2023-03-23T05:11:04;4.78;;;2.80;;
25153;SDS011;47555;51.038;6.280;2023-03-23T05:13:30;3.60;;;2.92;;
25153;SDS011;47555;51.038;6.280;2023-03-23T05:15:56;5.28;;;2.90;;
25153;SDS011;47555;51.038;6.280;2023-03-23T05:18:23;4.28;;;3.08;;
25153;SDS011;47555;51.038;6.280;2023-03-23T05:20:49;3.67;;;2.70;;
25153;SDS011;47555;51.038;6.280;2023-03-23T05:23:17;3.90;;;2.85;;
25153;SDS011;47555;51.038;6.280;2023-03-23T05:25:51;5.05;;;2.70;;
25153;SDS011;47555;51.038;6.280;2023-03-23T05:28:21;4.32;;;2.78;;
25153;SDS011;47555;51.038;6.280;2023-03-23T05:30:47;4.25;;;2.63;;
25153;SDS011;47555;51.038;6.280;2023-03-23T05:33:13;3.72;;;3.03;;
25153;SDS011;47555;51.038;6.280;2023-03-23T05:35:38;7.18;;;3.20;;
25153;SDS011;47555;51.038;6.280;2023-03-23T05:38:04;5.75;;;3.08;;
25153;SDS011;47555;51.038;6.280;2023-03-23T05:40:30;3.63;;;2.47;;
25153;SDS011;47555;51.038;6.280;2023-03-23T05:42:55;5.95;;;2.70;;
25153;SDS011;47555;51.038;6.280;2023-03-23T05:45:24;4.80;;;2.38;;
25153;SDS011;47555;51.038;6.280;2023-03-23T05:47:50;4.35;;;2.28;;
25153;SDS011;47555;51.038;6.280;2023-03-23T05:50:16;6.47;;;2.60;;
25153;SDS011;47555;51.038;6.280;2023-03-23T05:52:42;5.60;;;2.67;;
25153;SDS011;47555;51.038;6.280;2023-03-23T05:55:08;9.75;;;3.13;;
25153;SDS011;47555;51.038;6.280;2023-03-23T05:57:34;3.05;;;2.40;;
25153;SDS011;47555;51.038;6.280;2023-03-23T06:00:00;4.60;;;2.88;;
25153;SDS011;47555;51.038;6.280;2023-03-23T06:02:30;4.25;;;2.60;;
25153;SDS011;47555;51.038;6.280;2023-03-23T06:04:56;3.72;;;2.47;;
25153;SDS011;47555;51.038;6.280;2023-03-23T06:07:22;4.30;;;2.00;;
25153;SDS011;47555;51.038;6.280;2023-03-23T06:09:49;3.58;;;2.20;;
25153;SDS011;47555;51.038;6.280;2023-03-23T06:12:15;3.80;;;1.98;;
25153;SDS011;47555;51.038;6.280;2023-03-23T06:14:45;3.17;;;2.33;;
25153;SDS011;47555;51.038;6.280;2023-03-23T06:17:11;4.55;;;2.40;;
25153;SDS011;47555;51.038;6.280;2023-03-23T06:19:37;4.60;;;2.30;;
25153;SDS011;47555;51.038;6.280;2023-03-23T06:22:02;4.72;;;2.50;;
25153;SDS011;47555;51.038;6.280;2023-03-23T06:24:28;3.75;;;2.33;;
25153;SDS011;47555;51.038;6.280;2023-03-23T06:26:54;3.13;;;2.42;;
25153;SDS011;47555;51.038;6.280;2023-03-23T06:29:19;5.30;;;2.30;;
25153;SDS011;47555;51.038;6.280;2023-03-23T06:31:49;5.82;;;2.63;;
25153;SDS011;47555;51.038;6.280;2023-03-23T06:34:19;4.80;;;1.92;;
25153;SDS011;47555;51.038;6.280;2023-03-23T06:36:44;3.20;;;2.00;;
25153;SDS011;47555;51.038;6.280;2023-03-23T06:39:10;3.72;;;2.30;;
25153;SDS011;47555;51.038;6.280;2023-03-23T06:41:36;3.50;;;2.03;;
25153;SDS011;47555;51.038;6.280;2023-03-23T06:44:02;6.70;;;2.40;;
25153;SDS011;47555;51.038;6.280;2023-03-23T06:46:27;2.00;;;1.80;;
25153;SDS011;47555;51.038;6.280;2023-03-23T06:48:53;3.38;;;1.90;;
25153;SDS011;47555;51.038;6.280;2023-03-23T06:51:20;5.53;;;2.10;;
25153;SDS011;47555;51.038;6.280;2023-03-23T06:53:46;3.85;;;1.80;;
25153;SDS011;47555;51.038;6.280;2023-03-23T06:56:12;2.35;;;1.92;;
25153;SDS011;47555;51.038;6.280;2023-03-23T06:58:38;3.35;;;1.83;;
25153;SDS011;47555;51.038;6.280;2023-03-23T07:01:04;5.00;;;1.90;;
25153;SDS011;47555;51.038;6.280;2023-03-23T07:03:31;4.03;;;1.77;;
25153;SDS011;47555;51.038;6.280;2023-03-23T07:05:57;2.53;;;1.90;;
25153;SDS011;47555;51.038;6.280;2023-03-23T07:08:23;3.28;;;2.00;;
25153;SDS011;47555;51.038;6.280;2023-03-23T07:10:52;1.92;;;1.60;;
25153;SDS011;47555;51.038;6.280;2023-03-23T07:13:19;6.22;;;2.05;;
25153;SDS011;47555;51.038;6.280;2023-03-23T07:15:45;4.68;;;1.60;;
25153;SDS011;47555;51.038;6.280;2023-03-23T07:18:14;2.90;;;1.60;;
25153;SDS011;47555;51.038;6.280;2023-03-23T07:20:40;3.25;;;1.73;;
25153;SDS011;47555;51.038;6.280;2023-03-23T07:23:06;3.58;;;1.85;;
25153;SDS011;47555;51.038;6.280;2023-03-23T07:25:32;2.97;;;1.48;;
25153;SDS011;47555;51.038;6.280;2023-03-23T07:27:59;5.13;;;1.80;;
25153;SDS011;47555;51.038;6.280;2023-03-23T07:30:26;2.35;;;1.58;;
25153;SDS011;47555;51.038;6.280;2023-03-23T07:32:52;3.20;;;1.95;;
25153;SDS011;47555;51.038;6.280;2023-03-23T07:35:18;2.42;;;2.15;;
25153;SDS011;47555;51.038;6.280;2023-03-23T07:37:43;3.63;;;1.52;;
25153;SDS011;47555;51.038;6.280;2023-03-23T07:40:10;3.47;;;1.80;;
25153;SDS011;47555;51.038;6.280;2023-03-23T07:42:43;4.75;;;1.75;;
25153;SDS011;47555;51.038;6.280;2023-03-23T07:45:11;4.63;;;1.98;;
25153;SDS011;47555;51.038;6.280;2023-03-23T07:47:38;5.38;;;1.73;;
25153;SDS011;47555;51.038;6.280;2023-03-23T07:50:05;3.30;;;1.50;;
25153;SDS011;47555;51.038;6.280;2023-03-23T07:52:32;3.65;;;1.60;;
25153;SDS011;47555;51.038;6.280;2023-03-23T07:54:58;4.30;;;1.70;;
25153;SDS011;47555;51.038;6.280;2023-03-23T07:57:26;3.25;;;1.48;;
25153;SDS011;47555;51.038;6.280;2023-03-23T07:59:52;2.88;;;1.65;;
25153;SDS011;47555;51.038;6.280;2023-03-23T08:02:17;5.35;;;2.10;;
25153;SDS011;47555;51.038;6.280;2023-03-23T08:04:43;5.93;;;1.95;;
25153;SDS011;47555;51.038;6.280;2023-03-23T08:07:09;3.80;;;2.20;;
25153;SDS011;47555;51.038;6.280;2023-03-23T08:09:37;5.93;;;2.20;;
25153;SDS011;47555;51.038;6.280;2023-03-23T08:12:03;4.47;;;1.70;;
25153;SDS011;47555;51.038;6.280;2023-03-23T08:14:29;5.60;;;2.10;;
25153;SDS011;47555;51.038;6.280;2023-03-23T08:16:55;2.67;;;1.52;;
25153;SDS011;47555;51.038;6.280;2023-03-23T08:19:22;3.10;;;1.70;;
25153;SDS011;47555;51.038;6.280;2023-03-23T08:21:49;4.63;;;1.77;;
25153;SDS011;47555;51.038;6.280;2023-03-23T08:24:14;6.05;;;1.40;;
25153;SDS011;47555;51.038;6.280;2023-03-23T08:26:40;6.70;;;1.95;;
25153;SDS011;47555;51.038;6.280;2023-03-23T08:29:06;3.28;;;2.22;;
25153;SDS011;47555;51.038;6.280;2023-03-23T08:31:33;3.25;;;1.77;;
25153;SDS011;47555;51.038;6.280;2023-03-23T08:34:00;4.20;;;1.80;;
25153;SDS011;47555;51.038;6.280;2023-03-23T08:36:27;4.82;;;2.17;;
25153;SDS011;47555;51.038;6.280;2023-03-23T08:38:53;4.32;;;1.60;;
25153;SDS011;47555;51.038;6.280;2023-03-23T08:41:19;5.00;;;1.77;;
25153;SDS011;47555;51.038;6.280;2023-03-23T08:43:45;3.88;;;1.65;;
25153;SDS011;47555;51.038;6.280;2023-03-23T08:46:11;3.60;;;1.60;;
25153;SDS011;47555;51.038;6.280;2023-03-23T08:48:37;6.18;;;1.60;;
25153;SDS011;47555;51.038;6.280;2023-03-23T08:51:04;3.92;;;1.48;;
25153;SDS011;47555;51.038;6.280;2023-03-23T08:53:31;2.75;;;1.52;;
25153;SDS011;47555;51.038;6.280;2023-03-23T08:56:02;3.05;;;2.00;;
25153;SDS011;47555;51.038;6.280;2023-03-23T08:58:32;4.53;;;1.60;;
25153;SDS011;47555;51.038;6.280;2023-03-23T09:00:59;5.68;;;1.77;;
25153;SDS011;47555;51.038;6.280;2023-03-23T09:03:25;4.00;;;1.67;;
25153;SDS011;47555;51.038;6.280;2023-03-23T09:05:51;5.15;;;1.73;;
25153;SDS011;47555;51.038;6.280;2023-03-23T09:08:16;3.75;;;1.45;;
25153;SDS011;47555;51.038;6.280;2023-03-23T09:10:42;3.25;;;1.95;;
25153;SDS011;47555;51.038;6.280;2023-03-23T09:13:08;2.75;;;1.63;;
25153;SDS011;47555;51.038;6.280;2023-03-23T09:15:33;5.25;;;1.70;;
25153;SDS011;47555;51.038;6.280;2023-03-23T09:17:59;6.45;;;1.75;;
25153;SDS011;47555;51.038;6.280;2023-03-23T09:20:26;5.78;;;1.65;;
25153;SDS011;47555;51.038;6.280;2023-03-23T09:22:55;2.33;;;1.20;;
25153;SDS011;47555;51.038;6.280;2023-03-23T09:25:23;4.45;;;1.58;;
25153;SDS011;47555;51.038;6.280;2023-03-23T09:27:52;4.63;;;2.60;;
25153;SDS011;47555;51.038;6.280;2023-03-23T09:30:21;4.60;;;1.70;;
25153;SDS011;47555;51.038;6.280;2023-03-23T09:32:55;2.95;;;1.60;;
25153;SDS011;47555;51.038;6.280;2023-03-23T09:35:21;4.75;;;2.08;;
25153;SDS011;47555;51.038;6.280;2023-03-23T09:37:48;5.88;;;1.70;;
25153;SDS011;47555;51.038;6.280;2023-03-23T09:40:20;4.78;;;2.03;;
25153;SDS011;47555;51.038;6.280;2023-03-23T09:42:57;4.63;;;1.48;;
25153;SDS011;47555;51.038;6.280;2023-03-23T09:51:38;5.03;;;2.17;;
25153;SDS011;47555;51.038;6.280;2023-03-23T09:54:16;3.78;;;1.77;;
25153;SDS011;47555;51.038;6.280;2023-03-23T09:56:46;5.45;;;2.05;;
25153;SDS011;47555;51.038;6.280;2023-03-23T09:59:14;3.58;;;1.85;;
25153;SDS011;47555;51.038;6.280;2023-03-23T10:01:48;7.70;;;2.10;;
25153;SDS011;47555;51.038;6.280;2023-03-23T10:07:12;2.03;;;1.65;;
25153;SDS011;47555;51.038;6.280;2023-03-23T10:09:43;3.78;;;1.90;;
25153;SDS011;47555;51.038;6.280;2023-03-23T10:18:07;8.02;;;4.40;;
25153;SDS011;47555;51.038;6.280;2023-03-23T10:28:50;1.92;;;1.42;;
25153;SDS011;47555;51.038;6.280;2023-03-23T10:31:21;2.20;;;1.50;;
25153;SDS011;47555;51.038;6.280;2023-03-23T10:33:50;4.43;;;1.63;;
25153;SDS011;47555;51.038;6.280;2023-03-23T10:36:21;2.75;;;1.65;;
25153;SDS011;47555;51.038;6.280;2023-03-23T10:41:25;3.53;;;2.10;;
25153;SDS011;47555;51.038;6.280;2023-03-23T10:43:51;3.55;;;1.70;;
25153;SDS011;47555;51.038;6.280;2023-03-23T10:46:34;3.35;;;2.08;;
25153;SDS011;47555;51.038;6.280;2023-03-23T10:50:01;5.28;;;3.30;;
25153;SDS011;47555;51.038;6.280;2023-03-23T10:52:33;6.53;;;4.22;;
25153;SDS011;47555;51.038;6.280;2023-03-23T10:55:04;7.38;;;4.45;;
25153;SDS011;47555;51.038;6.280;2023-03-23T10:57:35;4.22;;;2.88;;
25153;SDS011;47555;51.038;6.280;2023-03-23T11:00:19;3.15;;;2.22;;
25153;SDS011;47555;51.038;6.280;2023-03-23T11:02:57;3.17;;;1.75;;
25153;SDS011;47555;51.038;6.280;2023-03-23T11:05:24;1.90;;;1.52;;
25153;SDS011;47555;51.038;6.280;2023-03-23T11:07:53;3.45;;;1.70;;
25153;SDS011;47555;51.038;6.280;2023-03-23T11:10:33;3.03;;;1.90;;
25153;SDS011;47555;51.038;6.280;2023-03-23T11:13:04;4.47;;;1.90;;
25153;SDS011;47555;51.038;6.280;2023-03-23T11:15:39;3.60;;;2.08;;
25153;SDS011;47555;51.038;6.280;2023-03-23T11:18:08;2.63;;;1.85;;
25153;SDS011;47555;51.038;6.280;2023-03-23T11:20:37;3.40;;;2.17;;
25153;SDS011;47555;51.038;6.280;2023-03-23T11:25:53;4.20;;;2.20;;
25153;SDS011;47555;51.038;6.280;2023-03-23T11:28:25;2.70;;;2.10;;
25153;SDS011;47555;51.038;6.280;2023-03-23T11:30:53;3.92;;;2.60;;
25153;SDS011;47555;51.038;6.280;2023-03-23T11:33:20;11.27;;;4.00;;
25153;SDS011;47555;51.038;6.280;2023-03-23T11:35:49;8.02;;;4.05;;
25153;SDS011;47555;51.038;6.280;2023-03-23T11:38:19;5.82;;;2.97;;
25153;SDS011;47555;51.038;6.280;2023-03-23T11:40:50;5.20;;;2.38;;
25153;SDS011;47555;51.038;6.280;2023-03-23T11:43:19;5.53;;;2.85;;
25153;SDS011;47555;51.038;6.280;2023-03-23T11:46:34;2.85;;;2.28;;
25153;SDS011;47555;51.038;6.280;2023-03-23T11:48:38;7.07;;;3.10;;
25153;SDS011;47555;51.038;6.280;2023-03-23T11:51:21;5.88;;;4.18;;
25153;SDS011;47555;51.038;6.280;2023-03-23T11:56:51;4.90;;;3.30;;
25153;SDS011;47555;51.038;6.280;2023-03-23T11:59:19;4.70;;;2.67;;
25153;SDS011;47555;51.038;6.280;2023-03-23T12:02:09;3.40;;;2.70;;
25153;SDS011;47555;51.038;6.280;2023-03-23T12:19:20;4.75;;;3.50;;
25153;SDS011;47555;51.038;6.280;2023-03-23T12:24:59;4.35;;;3.47;;
25153;SDS011;47555;51.038;6.280;2023-03-23T12:27:47;5.43;;;3.07;;
25153;SDS011;47555;51.038;6.280;2023-03-23T12:30:46;3.95;;;2.28;;
25153;SDS011;47555;51.038;6.280;2023-03-23T12:38:59;3.13;;;2.63;;
25153;SDS011;47555;51.038;6.280;2023-03-23T12:41:41;3.38;;;2.20;;
25153;SDS011;47555;51.038;6.280;2023-03-23T12:44:20;5.32;;;2.50;;
25153;SDS011;47555;51.038;6.280;2023-03-23T12:47:02;2.90;;;2.22;;
25153;SDS011;47555;51.038;6.280;2023-03-23T12:49:38;5.55;;;2.45;;
25153;SDS011;47555;51.038;6.280;2023-03-23T12:55:03;4.68;;;3.00;;
25153;SDS011;47555;51.038;6.280;2023-03-23T12:57:43;4.05;;;3.30;;
25153;SDS011;47555;51.038;6.280;2023-03-23T13:00:23;4.43;;;3.40;;
25153;SDS011;47555;51.038;6.280;2023-03-23T13:03:00;4.97;;;3.08;;
25153;SDS011;47555;51.038;6.280;2023-03-23T13:08:14;3.88;;;2.75;;
25153;SDS011;47555;51.038;6.280;2023-03-23T13:10:47;5.10;;;2.72;;
25153;SDS011;47555;51.038;6.280;2023-03-23T13:13:19;4.35;;;3.28;;
25153;SDS011;47555;51.038;6.280;2023-03-23T13:16:02;6.38;;;3.92;;
25153;SDS011;47555;51.038;6.280;2023-03-23T13:18:56;3.42;;;2.53;;
25153;SDS011;47555;51.038;6.280;2023-03-23T13:22:01;3.88;;;1.90;;
25153;SDS011;47555;51.038;6.280;2023-03-23T13:24:34;2.55;;;2.03;;
25153;SDS011;47555;51.038;6.280;2023-03-23T13:27:04;4.13;;;2.15;;
25153;SDS011;47555;51.038;6.280;2023-03-23T13:29:33;5.00;;;1.55;;
25153;SDS011;47555;51.038;6.280;2023-03-23T13:32:06;3.08;;;1.50;;
25153;SDS011;47555;51.038;6.280;2023-03-23T13:34:37;4.15;;;1.20;;
25153;SDS011;47555;51.038;6.280;2023-03-23T13:37:05;2.55;;;1.30;;
25153;SDS011;47555;51.038;6.280;2023-03-23T13:42:53;1.63;;;1.40;;
25153;SDS011;47555;51.038;6.280;2023-03-23T13:55:49;2.45;;;1.40;;
25153;SDS011;47555;51.038;6.280;2023-03-23T13:58:29;4.28;;;2.30;;
25153;SDS011;47555;51.038;6.280;2023-03-23T14:01:10;4.15;;;1.85;;
25153;SDS011;47555;51.038;6.280;2023-03-23T14:03:41;6.68;;;2.22;;
25153;SDS011;47555;51.038;6.280;2023-03-23T14:06:12;4.70;;;2.08;;
25153;SDS011;47555;51.038;6.280;2023-03-23T14:08:41;5.10;;;2.40;;
25153;SDS011;47555;51.038;6.280;2023-03-23T14:11:16;5.93;;;2.47;;
25153;SDS011;47555;51.038;6.280;2023-03-23T14:16:32;4.45;;;2.38;;
25153;SDS011;47555;51.038;6.280;2023-03-23T14:19:13;4.68;;;2.00;;
25153;SDS011;47555;51.038;6.280;2023-03-23T14:21:41;6.50;;;2.20;;
25153;SDS011;47555;51.038;6.280;2023-03-23T14:24:17;3.80;;;2.42;;
25153;SDS011;47555;51.038;6.280;2023-03-23T14:26:48;4.82;;;2.50;;
25153;SDS011;47555;51.038;6.280;2023-03-23T14:29:17;3.28;;;2.20;;
25153;SDS011;47555;51.038;6.280;2023-03-23T14:31:44;7.30;;;2.20;;
25153;SDS011;47555;51.038;6.280;2023-03-23T14:34:13;6.53;;;2.47;;
25153;SDS011;47555;51.038;6.280;2023-03-23T14:36:40;8.50;;;2.88;;
25153;SDS011;47555;51.038;6.280;2023-03-23T14:39:16;5.43;;;2.92;;
25153;SDS011;47555;51.038;6.280;2023-03-23T14:41:46;6.85;;;2.70;;
25153;SDS011;47555;51.038;6.280;2023-03-23T14:44:13;5.15;;;2.10;;
25153;SDS011;47555;51.038;6.280;2023-03-23T14:46:42;3.90;;;2.20;;
25153;SDS011;47555;51.038;6.280;2023-03-23T14:49:10;5.03;;;2.20;;
25153;SDS011;47555;51.038;6.280;2023-03-23T14:51:46;5.50;;;2.13;;
25153;SDS011;47555;51.038;6.280;2023-03-23T14:54:24;5.03;;;2.30;;
25153;SDS011;47555;51.038;6.280;2023-03-23T14:56:52;7.68;;;2.10;;
25153;SDS011;47555;51.038;6.280;2023-03-23T14:59:19;6.85;;;2.00;;
25153;SDS011;47555;51.038;6.280;2023-03-23T15:01:45;3.33;;;1.77;;
25153;SDS011;47555;51.038;6.280;2023-03-23T15:04:17;5.03;;;1.90;;
25153;SDS011;47555;51.038;6.280;2023-03-23T15:09:17;3.75;;;1.90;;
25153;SDS011;47555;51.038;6.280;2023-03-23T15:11:50;6.82;;;2.08;;
25153;SDS011;47555;51.038;6.280;2023-03-23T15:14:22;6.53;;;2.00;;
25153;SDS011;47555;51.038;6.280;2023-03-23T15:16:52;4.40;;;2.83;;
25153;SDS011;47555;51.038;6.280;2023-03-23T15:19:27;8.38;;;2.72;;
25153;SDS011;47555;51.038;6.280;2023-03-23T15:22:06;5.07;;;2.50;;
25153;SDS011;47555;51.038;6.280;2023-03-23T15:24:40;4.00;;;2.28;;
25153;SDS011;47555;51.038;6.280;2023-03-23T15:29:34;5.18;;;2.28;;
25153;SDS011;47555;51.038;6.280;2023-03-23T15:32:11;5.10;;;1.80;;
25153;SDS011;47555;51.038;6.280;2023-03-23T15:34:37;4.95;;;2.30;;
25153;SDS011;47555;51.038;6.280;2023-03-23T15:37:05;6.15;;;2.22;;
25153;SDS011;47555;51.038;6.280;2023-03-23T15:39:41;6.35;;;2.30;;
25153;SDS011;47555;51.038;6.280;2023-03-23T15:42:19;5.45;;;2.00;;
25153;SDS011;47555;51.038;6.280;2023-03-23T15:50:13;4.72;;;2.65;;
25153;SDS011;47555;51.038;6.280;2023-03-23T15:52:42;5.95;;;2.20;;
25153;SDS011;47555;51.038;6.280;2023-03-23T15:57:47;4.57;;;1.95;;
25153;SDS011;47555;51.038;6.280;2023-03-23T16:00:14;4.97;;;2.05;;
25153;SDS011;47555;51.038;6.280;2023-03-23T16:02:41;4.85;;;1.92;;
25153;SDS011;47555;51.038;6.280;2023-03-23T16:05:08;6.03;;;1.88;;
25153;SDS011;47555;51.038;6.280;2023-03-23T16:07:36;3.78;;;1.67;;
25153;SDS011;47555;51.038;6.280;2023-03-23T16:10:02;6.13;;;2.30;;
25153;SDS011;47555;51.038;6.280;2023-03-23T16:12:28;8.00;;;2.20;;
25153;SDS011;47555;51.038;6.280;2023-03-23T16:14:54;5.63;;;1.85;;
25153;SDS011;47555;51.038;6.280;2023-03-23T16:17:19;5.60;;;1.60;;
25153;SDS011;47555;51.038;6.280;2023-03-23T16:19:45;6.60;;;1.67;;
25153;SDS011;47555;51.038;6.280;2023-03-23T16:22:11;2.63;;;1.80;;
25153;SDS011;47555;51.038;6.280;2023-03-23T16:24:37;4.07;;;1.90;;
25153;SDS011;47555;51.038;6.280;2023-03-23T16:27:03;4.65;;;1.70;;
25153;SDS011;47555;51.038;6.280;2023-03-23T16:29:29;4.65;;;1.70;;
25153;SDS011;47555;51.038;6.280;2023-03-23T16:31:54;4.68;;;2.00;;
25153;SDS011;47555;51.038;6.280;2023-03-23T16:34:20;4.50;;;1.77;;
25153;SDS011;47555;51.038;6.280;2023-03-23T16:36:45;4.13;;;2.00;;
25153;SDS011;47555;51.038;6.280;2023-03-23T16:39:11;5.47;;;1.42;;
25153;SDS011;47555;51.038;6.280;2023-03-23T16:41:36;9.02;;;2.45;;
25153;SDS011;47555;51.038;6.280;2023-03-23T16:44:02;6.70;;;2.35;;
25153;SDS011;47555;51.038;6.280;2023-03-23T16:46:28;5.53;;;2.13;;
25153;SDS011;47555;51.038;6.280;2023-03-23T16:48:54;3.63;;;1.83;;
25153;SDS011;47555;51.038;6.280;2023-03-23T16:51:20;5.18;;;1.70;;
25153;SDS011;47555;51.038;6.280;2023-03-23T16:53:45;4.82;;;1.92;;